Flight Track Log - Related Links

Times and Time Zones

All times are in EDT time to prevent confusion due to time zone crossing. See the UAL1177 flight status page for this flight to view local times or setup timezone preferences in your user account.

Time Position Orientation Groundspeed Altitude Reporting Facility
EDT Latitude Longitude Course Direction KTS MPH feet Rate Location/Type
Thu 03:35:52 PM 26.0770 -80.1330 90° East 165 190 500  Level FlightAware ADS-B
Thu 03:36:22 PM 26.0780 -80.1060 88° East 194 223 1,300 1,745 Climbing FlightAware ADS-B
Thu 03:36:47 PM 26.0800 -80.0790 85° East 217 250 2,100 2,182 Climbing FlightAware ADS-B
Thu 03:37:17 PM 26.0820 -80.0450 86° East 234 269 3,300 2,000 Climbing FlightAware ADS-B
Thu 03:37:47 PM 26.0850 -80.0060 85° East 268 308 4,100 1,800 Climbing FlightAware ADS-B
Thu 03:37:57 PM 26.0880 -79.9940 74° East 272 313 4,500 1,920 Climbing FlightAware ADS-B
Thu 03:38:12 PM 26.1020 -79.9760 49° Northeast 275 316 4,900 800 Climbing FlightAware ADS-B
Thu 03:38:27 PM 26.1180 -79.9670 27° Northeast 271 312 4,900 -133 Level FlightAware ADS-B
Thu 03:38:57 PM 26.1520 -79.9580 13° North 268 308 4,800 -109 Descending FlightAware ADS-B
Thu 03:39:22 PM 26.1800 -79.9720 336° Northwest 267 307 4,800  Level FlightAware ADS-B
Thu 03:39:37 PM 26.1910 -79.9920 302° West 267 307 4,800 133 Level FlightAware ADS-B
Thu 03:40:07 PM 26.2010 -80.0310 286° West 266 306 4,900 109 Climbing FlightAware ADS-B
Thu 03:40:32 PM 26.2090 -80.0660 284° West 269 310 4,900 327 Level FlightAware ADS-B
Thu 03:41:02 PM 26.2190 -80.1040 286° West 273 314 5,200 1,527 Climbing FlightAware ADS-B
Thu 03:41:27 PM 26.2280 -80.1400 286° West 285 328 6,300 2,836 Climbing FlightAware ADS-B
Thu 03:41:57 PM 26.2390 -80.1820 286° West 286 329 7,800 2,600 Climbing FlightAware ADS-B
Thu 03:42:27 PM 26.2460 -80.2240 281° West 294 338 8,900 943 Climbing FlightAware ADS-B
Thu 03:43:07 PM 26.2540 -80.2810 279° West 286 329 8,900  Level FlightAware ADS-B
Thu 03:43:17 PM 26.2560 -80.2980 277° West 287 330 8,900  Level FlightAware ADS-B
Thu 03:44:02 PM 26.2650 -80.3640 279° West 284 327 8,900  Level FlightAware ADS-B
Thu 03:44:32 PM 26.2720 -80.4080 280° West 283 326 8,900 1,020 Level FlightAware ADS-B
Thu 03:45:42 PM 26.2860 -80.5120 279° West 303 349 10,600 1,371 Climbing FlightAware ADS-B
Thu 03:46:52 PM 26.3340 -80.6200 296° West 369 425 12,100 1,560 Climbing FlightAware ADS-B
Thu 03:47:22 PM 26.3660 -80.6670 307° West 376 433 13,200 2,100 Climbing FlightAware ADS-B
Thu 03:48:12 PM 26.4270 -80.7320 316° Northwest 381 438 14,900 1,700 Climbing FlightAware ADS-B
Thu 03:49:22 PM 26.5260 -80.8120 324° Northwest 386 444 16,600 1,906 Climbing FlightAware ADS-B
Thu 03:50:07 PM 26.5990 -80.8710 324° Northwest 18,700 2,076 Climbing FlightAware ADS-B
Thu 03:52:27 PM 26.8160 -81.0480 324° Northwest 419 482 23,000 1,733 Climbing FlightAware ADS-B
Thu 03:53:07 PM 26.8790 -81.0990 324° Northwest 421 484 23,900 1,271 Climbing FlightAware ADS-B
Thu 03:53:52 PM 26.9510 -81.1580 324° Northwest 436 502 24,800 1,271 Climbing FlightAware ADS-B
Thu 03:54:32 PM 27.0170 -81.2120 324° Northwest 441 507 25,700 1,341 Climbing FlightAware ADS-B
Thu 03:55:17 PM 27.0900 -81.2720 324° Northwest 439 505 26,700 1,200 Climbing FlightAware ADS-B
Thu 03:55:57 PM 27.1580 -81.3270 324° Northwest 444 511 27,400 1,125 Climbing FlightAware ADS-B
Thu 03:56:37 PM 27.2220 -81.3800 324° Northwest 447 514 28,200 1,553 Climbing FlightAware ADS-B
Thu 03:57:22 PM 27.3020 -81.4460 324° Northwest 444 511 29,600 1,976 Climbing FlightAware ADS-B
Thu 03:58:02 PM 27.3680 -81.5000 324° Northwest 424 488 31,000 1,835 Climbing FlightAware ADS-B
Thu 03:58:47 PM 27.4320 -81.5530 324° Northwest 417 480 32,200 1,624 Climbing FlightAware ADS-B
Thu 03:59:27 PM 27.5010 -81.6100 324° Northwest 404 465 33,300 1,350 Climbing FlightAware ADS-B
Thu 04:00:07 PM 27.5610 -81.6600 324° Northwest 400 460 34,000 1,059 Climbing FlightAware ADS-B
Thu 04:00:52 PM 27.6300 -81.7170 324° Northwest 402 463 34,800 1,059 Climbing FlightAware ADS-B
Thu 04:01:32 PM 27.6890 -81.7660 324° Northwest 398 458 35,500 900 Climbing FlightAware ADS-B
Thu 04:02:12 PM 27.7470 -81.8150 323° Northwest 389 448 36,000 353 Climbing FlightAware ADS-B
Thu 04:02:57 PM 27.8140 -81.8700 324° Northwest 396 456 36,000  Level FlightAware ADS-B
Thu 04:03:37 PM 27.8730 -81.9180 324° Northwest 389 448 36,000  Level FlightAware ADS-B
Thu 04:04:22 PM 27.9400 -81.9750 323° Northwest 388 447 36,000  Level FlightAware ADS-B
Thu 04:05:02 PM 27.9980 -82.0240 323° Northwest 387 445 36,000  Level FlightAware ADS-B
Thu 04:05:37 PM 28.0490 -82.0690 322° Northwest 394 453 36,000  Level FlightAware ADS-B
Thu 04:06:27 PM 28.1210 -82.1340 321° Northwest 395 455 36,000  Level FlightAware ADS-B
Thu 04:07:07 PM 28.1780 -82.1850 322° Northwest 390 449 36,000  Level FlightAware ADS-B
Thu 04:07:47 PM 28.2370 -82.2380 322° Northwest 397 457 36,000  Level FlightAware ADS-B
Thu 04:08:32 PM 28.3020 -82.2950 322° Northwest 399 459 36,000  Level FlightAware ADS-B
Thu 04:09:12 PM 28.3580 -82.3450 322° Northwest 400 460 36,000  Level FlightAware ADS-B
Thu 04:09:57 PM 28.4270 -82.4080 321° Northwest 402 463 36,000  Level FlightAware ADS-B
Thu 04:10:37 PM 28.4830 -82.4580 322° Northwest 401 461 36,000  Level FlightAware ADS-B
Thu 04:11:22 PM 28.5500 -82.5190 321° Northwest 401 461 36,000  Level FlightAware ADS-B
Thu 04:12:02 PM 28.6050 -82.5680 322° Northwest 401 461 36,000  Level FlightAware ADS-B
Thu 04:12:42 PM 28.6600 -82.6180 321° Northwest 395 455 36,000  Level FlightAware ADS-B
Thu 04:13:27 PM 28.7310 -82.6820 322° Northwest 394 453 36,000  Level FlightAware ADS-B
Thu 04:14:07 PM 28.7880 -82.7340 321° Northwest 394 453 36,000  Level FlightAware ADS-B
Thu 04:15:02 PM 28.8620 -82.8010 322° Northwest 401 461 36,000  Level FlightAware ADS-B
Thu 04:15:47 PM 28.9330 -82.8650 322° Northwest 399 459 36,000  Level FlightAware ADS-B
Thu 04:16:42 PM 29.0070 -82.9330 321° Northwest 392 451 36,000  Level FlightAware ADS-B
Thu 04:17:52 PM 29.1140 -83.0300 322° Northwest 392 451 36,000  Level FlightAware ADS-B
Thu 04:18:32 PM 29.1700 -83.0810 322° Northwest 397 457 36,000  Level FlightAware ADS-B
Thu 04:19:17 PM 29.2360 -83.1420 321° Northwest 392 451 36,000  Level FlightAware ADS-B
Thu 04:19:57 PM 29.2940 -83.1950 321° Northwest 394 453 36,000  Level FlightAware ADS-B
Thu 04:20:37 PM 29.3510 -83.2480 321° Northwest 395 455 36,000  Level FlightAware ADS-B
Thu 04:21:22 PM 29.4170 -83.3080 322° Northwest 397 457 36,000  Level FlightAware ADS-B
Thu 04:21:57 PM 29.4700 -83.3570 321° Northwest 399 459 36,000  Level FlightAware ADS-B
Thu 04:22:47 PM 29.5390 -83.4250 319° Northwest 401 461 36,000  Level FlightAware ADS-B
Thu 04:23:42 PM 29.5980 -83.5160 307° West 398 458 36,000  Level FlightAware ADS-B
Thu 04:24:37 PM 29.6510 -83.6050 304° West 399 459 36,000  Level FlightAware ADS-B
Thu 04:25:17 PM 29.6860 -83.6650 304° West 399 459 36,000  Level FlightAware ADS-B
Thu 04:26:32 PM 29.7740 -83.8100 305° West 400 460 36,000  Level FlightAware ADS-B
Thu 04:27:12 PM 29.8090 -83.8700 304° West 400 460 36,000  Level FlightAware ADS-B
Thu 04:28:07 PM 29.8720 -83.9730 305° West 399 459 36,000  Level FlightAware ADS-B
Thu 04:28:47 PM 29.9150 -84.0450 305° West 399 459 36,000  Level FlightAware ADS-B
Thu 04:29:22 PM 29.9520 -84.1070 305° West 397 457 36,000  Level FlightAware ADS-B
Thu 04:30:02 PM 29.9950 -84.1800 304° West 397 457 36,000  Level FlightAware ADS-B
Thu 04:30:42 PM 30.0330 -84.2440 304° West 396 456 36,000  Level FlightAware ADS-B
Thu 04:31:37 PM 30.0910 -84.3420 304° West 397 457 36,000  Level FlightAware ADS-B
Thu 04:32:12 PM 30.1270 -84.4030 304° West 398 458 36,000  Level FlightAware ADS-B
Thu 04:33:02 PM 30.1820 -84.4950 305° West 398 458 36,000  Level FlightAware ADS-B
Thu 04:33:57 PM 30.2370 -84.5890 304° West 399 459 36,000  Level FlightAware ADS-B
Thu 04:34:32 PM 30.2130 -84.5490 125° Southeast 400 460 36,000  Level FlightAware ADS-B
Thu 04:35:12 PM 30.3160 -84.7230 304° West 401 461 36,000  Level FlightAware ADS-B
Thu 04:36:42 PM 30.3570 -84.7940 304° West 401 461 36,000  Level FlightAware ADS-B
Thu 04:37:42 PM 30.3390 -84.7630 124° Southeast 400 460 36,000  Level FlightAware ADS-B
Thu 04:38:22 PM 30.3740 -84.8240 304° West 400 460 36,000  Level FlightAware ADS-B
Thu 04:39:02 PM 30.4100 -84.8840 305° West 400 460 36,000  Level FlightAware ADS-B
Thu 04:39:42 PM 30.4450 -84.9450 304° West 400 460 36,000  Level FlightAware ADS-B
Thu 04:40:32 PM 30.4890 -85.0210 304° West 400 460 36,000  Level FlightAware ADS-B
Thu 04:41:12 PM 30.5240 -85.0810 304° West 400 460 36,000  Level FlightAware ADS-B
Thu 04:41:52 PM 30.5590 -85.1420 304° West 400 460 36,000  Level FlightAware ADS-B
Thu 04:42:32 PM 30.5940 -85.2020 304° West 400 460 36,000  Level FlightAware ADS-B
Thu 04:43:12 PM 30.6290 -85.2630 304° West 400 460 36,000  Level FlightAware ADS-B
Thu 04:43:52 PM 30.6650 -85.3230 305° West 400 460 36,000  Level FlightAware ADS-B
Thu 04:44:42 PM 30.7090 -85.3990 304° West 400 460 36,000  Level FlightAware ADS-B
Thu 04:45:22 PM 30.7440 -85.4600 304° West 400 460 36,000  Level FlightAware ADS-B
Thu 04:46:02 PM 30.7790 -85.5210 304° West 400 460 36,000  Level FlightAware ADS-B
Thu 04:46:42 PM 30.8140 -85.5810 304° West 400 460 36,000  Level FlightAware ADS-B
Thu 04:47:04 PM 31.0492 -85.9964 304° West 404 465 36,000  Level Jacksonville Center
Thu 04:48:04 PM 31.1092 -86.1075 302° West 409 471 36,000  Level Jacksonville Center
Thu 04:49:44 PM 31.2208 -86.3017 304° West 427 491 36,000  Level Atlanta Center
Thu 04:55:47 PM 31.5980 -86.9730 304° West 409 471 36,000  Level FlightAware ADS-B
Thu 04:56:32 PM 31.6390 -87.0490 302° West 410 472 36,000  Level FlightAware ADS-B
Thu 04:57:12 PM 31.6730 -87.1130 302° West 410 472 36,000  Level FlightAware ADS-B
Thu 04:57:52 PM 31.7070 -87.1780 302° West 410 472 36,000  Level FlightAware ADS-B
Thu 04:58:42 PM 31.7500 -87.2580 302° West 410 472 36,000  Level FlightAware ADS-B
Thu 04:59:32 PM 31.8290 -87.3930 305° West 409 471 36,000  Level FlightAware ADS-B
Thu 05:00:22 PM 31.8720 -87.4740 302° West 409 471 36,000  Level FlightAware ADS-B
Thu 05:01:02 PM 31.9060 -87.5380 302° West 409 471 36,000  Level FlightAware ADS-B
Thu 05:01:32 PM 31.9310 -87.5860 302° West 409 471 36,000  Level FlightAware ADS-B
Thu 05:02:12 PM 31.9660 -87.6500 303° West 409 471 36,000  Level FlightAware ADS-B
Thu 05:02:57 PM 32.0420 -87.7830 304° West 417 480 36,000  Level FlightAware ADS-B
Thu 05:03:37 PM 32.0810 -87.8550 303° West 418 481 36,000  Level FlightAware ADS-B
Thu 05:04:17 PM 32.1150 -87.9210 301° West 418 481 36,000  Level FlightAware ADS-B
Thu 05:04:57 PM 32.1500 -87.9870 302° West 418 481 36,000  Level FlightAware ADS-B
Thu 05:05:52 PM 32.2230 -88.1190 303° West 426 490 36,000  Level FlightAware ADS-B
Thu 05:06:42 PM 32.2810 -88.2260 303° West 430 495 36,000  Level FlightAware ADS-B
Thu 05:07:37 PM 32.3340 -88.3250 302° West 430 495 36,000  Level FlightAware ADS-B
Thu 05:08:17 PM 32.3700 -88.3930 302° West 430 495 36,000  Level FlightAware ADS-B
Thu 05:08:57 PM 32.4050 -88.4610 301° West 430 495 36,000  Level FlightAware ADS-B
Thu 05:09:57 PM 32.4800 -88.6000 303° West 429 494 36,000  Level FlightAware ADS-B
Thu 05:10:37 PM 32.5160 -88.6680 302° West 429 494 36,000  Level FlightAware ADS-B
Thu 05:11:17 PM 32.5520 -88.7360 302° West 429 494 36,000  Level FlightAware ADS-B
Thu 05:11:57 PM 32.5880 -88.8040 302° West 429 494 36,000  Level FlightAware ADS-B
Thu 05:12:37 PM 32.6230 -88.8720 301° West 429 494 36,000  Level FlightAware ADS-B
Thu 05:13:27 PM 32.6680 -88.9570 302° West 429 494 36,000  Level FlightAware ADS-B
Thu 05:14:07 PM 32.7040 -89.0250 302° West 429 494 36,000  Level FlightAware ADS-B
Thu 05:14:47 PM 32.7400 -89.0930 302° West 429 494 36,000  Level FlightAware ADS-B
Thu 05:15:27 PM 32.7750 -89.1610 301° West 429 494 36,000  Level FlightAware ADS-B
Thu 05:16:07 PM 32.8110 -89.2290 302° West 429 494 36,000  Level FlightAware ADS-B
Thu 05:16:57 PM 32.8560 -89.3140 302° West 429 494 36,000  Level FlightAware ADS-B
Thu 05:17:37 PM 32.8910 -89.3820 302° West 429 494 36,000  Level FlightAware ADS-B
Thu 05:18:17 PM 32.9270 -89.4500 302° West 429 494 36,000  Level FlightAware ADS-B
Thu 05:18:57 PM 32.9630 -89.5190 302° West 429 494 36,000 682 Level FlightAware ADS-B
Thu 05:19:45 PM 33.1047 -89.7894 302° West 429 494 37,000 556 Climbing Memphis Center
Thu 05:20:45 PM 33.1681 -89.9131 301° West 434 499 37,000  Level Memphis Center
Thu 05:21:45 PM 33.2267 -90.0344 300° West 429 494 37,000  Level Memphis Center
Thu 05:22:45 PM 33.2856 -90.1536 301° West 429 494 37,000  Level Memphis Center
Thu 05:23:45 PM 33.3461 -90.2728 301° West 423 487 37,000  Level Memphis Center
Thu 05:24:45 PM 33.4047 -90.3869 302° West 423 487 37,000  Level Memphis Center
Thu 05:25:45 PM 33.4631 -90.5017 301° West 418 481 37,000  Level Memphis Center
Thu 05:26:45 PM 33.5275 -90.6289 301° West 413 475 37,000  Level Memphis Center
Thu 05:27:45 PM 33.5856 -90.7436 301° West 413 475 37,000  Level Memphis Center
Thu 05:28:45 PM 33.6436 -90.8611 301° West 408 470 37,000  Level Memphis Center
Thu 05:29:45 PM 33.7017 -90.9764 301° West 408 470 37,000  Level Memphis Center
Thu 05:30:45 PM 33.7572 -91.0917 300° West 408 470 37,000  Level Memphis Center
Thu 05:31:44 PM 33.8150 -91.2097 301° West 408 470 37,000  Level Memphis Center
Thu 05:32:44 PM 33.8664 -91.3178 300° West 418 481 37,000  Level Memphis Center
Thu 05:33:45 PM 33.9261 -91.4361 301° West 413 475 37,000  Level Memphis Center
Thu 05:34:45 PM 33.9833 -91.5547 300° West 413 475 37,000  Level Memphis Center
Thu 05:35:45 PM 34.0428 -91.6758 301° West 418 481 37,000  Level Memphis Center
Thu 05:36:45 PM 34.1103 -91.8022 303° West 418 481 37,000  Level Memphis Center
Thu 05:37:45 PM 34.1672 -91.9236 300° West 412 474 37,000 50 Level Memphis Center
Thu 05:38:45 PM 34.2261 -92.0428 301° West 417 480 37,100 300 Climbing Memphis Center
Thu 05:39:45 PM 34.2828 -92.1644 299° West 417 480 37,600 454 Climbing Memphis Center
Thu 05:40:44 PM 34.3436 -92.2867 301° West 423 487 38,000 202 Climbing Memphis Center
Thu 05:41:44 PM 34.3981 -92.4111 298° West 423 487 38,000  Level Memphis Center
Thu 05:42:45 PM 34.4564 -92.5308 301° West 423 487 38,000  Level Memphis Center
Thu 05:43:45 PM 34.5147 -92.6508 301° West 423 487 38,000  Level Memphis Center
Thu 05:44:45 PM 34.5711 -92.7708 300° West 423 487 38,000  Level Memphis Center
Thu 05:45:45 PM 34.6269 -92.8911 299° West 417 480 38,000  Level Memphis Center
Thu 05:46:45 PM 34.6828 -93.0139 299° West 422 486 38,000  Level Memphis Center
Thu 05:47:44 PM 34.7386 -93.1319 300° West 422 486 38,000  Level Memphis Center
Thu 05:48:45 PM 34.7944 -93.2475 300° West 416 479 38,000  Level Memphis Center
Thu 05:49:44 PM 34.8522 -93.3686 300° West 416 479 38,000  Level Memphis Center
Thu 05:50:44 PM 34.9075 -93.4919 299° West 416 479 38,000  Level Memphis Center
Thu 05:51:45 PM 34.9628 -93.6106 300° West 416 479 38,000  Level Memphis Center
Thu 05:52:44 PM 35.0222 -93.7372 300° West 416 479 38,000  Level Memphis Center
Thu 05:53:45 PM 35.0772 -93.8611 299° West 416 479 38,000  Level Memphis Center
Thu 05:59:22 PM 35.4000 -94.5680 299° West 418 481 38,000  Level FlightAware ADS-B
Thu 06:00:07 PM 35.4370 -94.6520 298° West 418 481 38,000  Level FlightAware ADS-B
Thu 06:00:47 PM 35.4680 -94.7240 298° West 418 481 38,000  Level FlightAware ADS-B
Thu 06:01:27 PM 35.4990 -94.7950 298° West 418 481 38,000  Level FlightAware ADS-B
Thu 06:02:07 PM 35.5300 -94.8660 298° West 418 481 38,000  Level FlightAware ADS-B
Thu 06:02:47 PM 35.5600 -94.9380 297° West 418 481 38,000  Level FlightAware ADS-B
Thu 06:03:37 PM 35.5990 -95.0270 298° West 418 481 38,000  Level FlightAware ADS-B
Thu 06:04:12 PM 35.6670 -95.1700 300° West 426 490 38,000  Level FlightAware ADS-B
Thu 06:04:52 PM 35.6990 -95.2420 299° West 426 490 38,000  Level FlightAware ADS-B
Thu 06:05:42 PM 35.7380 -95.3340 298° West 426 490 38,000  Level FlightAware ADS-B
Thu 06:06:22 PM 35.7930 -95.4550 299° West 430 495 38,000  Level FlightAware ADS-B
Thu 06:07:17 PM 35.8450 -95.5730 299° West 430 495 38,000  Level FlightAware ADS-B
Thu 06:08:02 PM 35.8860 -95.6680 298° West 430 495 38,000  Level FlightAware ADS-B
Thu 06:08:42 PM 35.9240 -95.7550 298° West 430 495 38,000  Level FlightAware ADS-B
Thu 06:09:27 PM 35.9670 -95.8560 298° West 432 497 38,000  Level FlightAware ADS-B
Thu 06:10:07 PM 36.0050 -95.9420 299° West 433 498 38,000  Level FlightAware ADS-B
Thu 06:10:47 PM 36.0420 -96.0290 298° West 432 497 38,000  Level FlightAware ADS-B
Thu 06:11:32 PM 36.0840 -96.1260 298° West 430 495 38,000  Level FlightAware ADS-B
Thu 06:12:12 PM 36.1200 -96.2110 298° West 428 493 38,000  Level FlightAware ADS-B
Thu 06:12:52 PM 36.1570 -96.2980 298° West 429 494 38,000  Level FlightAware ADS-B
Thu 06:13:32 PM 36.1940 -96.3860 298° West 428 493 38,000  Level FlightAware ADS-B
Thu 06:14:17 PM 36.2360 -96.4840 298° West 429 494 38,000  Level FlightAware ADS-B
Thu 06:15:02 PM 36.2770 -96.5810 298° West 430 495 38,000  Level FlightAware ADS-B
Thu 06:15:57 PM 36.3270 -96.7000 298° West 430 495 38,000  Level FlightAware ADS-B
Thu 06:16:37 PM 36.3650 -96.7900 298° West 432 497 38,000  Level FlightAware ADS-B
Thu 06:17:17 PM 36.4000 -96.8730 298° West 433 498 38,000  Level FlightAware ADS-B
Thu 06:18:02 PM 36.4400 -96.9700 297° West 434 499 38,000  Level FlightAware ADS-B
Thu 06:18:42 PM 36.4790 -97.0630 298° West 435 501 38,000  Level FlightAware ADS-B
Thu 06:19:22 PM 36.5130 -97.1450 297° West 435 501 38,000  Level FlightAware ADS-B
Thu 06:20:07 PM 36.5590 -97.2540 298° West 435 501 38,000  Level FlightAware ADS-B
Thu 06:20:52 PM 36.6000 -97.3550 297° West 435 501 38,000  Level FlightAware ADS-B
Thu 06:21:32 PM 36.6370 -97.4440 297° West 434 499 38,000  Level FlightAware ADS-B
Thu 06:22:12 PM 36.6740 -97.5340 297° West 435 501 38,000  Level FlightAware ADS-B
Thu 06:22:52 PM 36.7090 -97.6210 297° West 434 499 38,000  Level FlightAware ADS-B
Thu 06:23:37 PM 36.7500 -97.7200 297° West 432 497 38,000  Level FlightAware ADS-B
Thu 06:24:17 PM 36.7860 -97.8100 297° West 431 496 38,000  Level FlightAware ADS-B
Thu 06:25:02 PM 36.8270 -97.9110 297° West 430 495 38,000  Level FlightAware ADS-B
Thu 06:25:42 PM 36.8630 -97.9990 297° West 430 495 38,000  Level FlightAware ADS-B
Thu 06:26:27 PM 36.9020 -98.0960 297° West 431 496 38,000  Level FlightAware ADS-B
Thu 06:27:07 PM 36.9380 -98.1850 297° West 430 495 38,000  Level FlightAware ADS-B
Thu 06:27:47 PM 36.9740 -98.2730 297° West 428 493 38,000  Level FlightAware ADS-B
Thu 06:28:32 PM 37.0140 -98.3740 296° West 427 491 38,000  Level FlightAware ADS-B
Thu 06:29:07 PM 37.0450 -98.4510 297° West 425 489 38,000  Level FlightAware ADS-B
Thu 06:29:57 PM 37.0880 -98.5590 297° West 423 487 38,000  Level FlightAware ADS-B
Thu 06:30:37 PM 37.1230 -98.6490 296° West 422 486 38,000  Level FlightAware ADS-B
Thu 06:31:17 PM 37.1570 -98.7340 297° West 421 484 38,000  Level FlightAware ADS-B
Thu 06:32:02 PM 37.1970 -98.8350 296° West 423 487 38,000  Level FlightAware ADS-B
Thu 06:32:42 PM 37.2310 -98.9230 296° West 426 490 38,000  Level FlightAware ADS-B
Thu 06:33:27 PM 37.2700 -99.0210 297° West 425 489 38,000  Level FlightAware ADS-B
Thu 06:34:02 PM 37.3000 -99.0980 296° West 424 488 38,000  Level FlightAware ADS-B
Thu 06:34:52 PM 37.3380 -99.1990 295° West 424 488 38,000  Level FlightAware ADS-B
Thu 06:35:32 PM 37.3660 -99.2750 295° West 424 488 38,000  Level FlightAware ADS-B
Thu 06:36:12 PM 37.3940 -99.3510 295° West 424 488 38,000  Level FlightAware ADS-B
Thu 06:36:52 PM 37.4220 -99.4270 295° West 424 488 38,000  Level FlightAware ADS-B
Thu 06:37:42 PM 37.4570 -99.5220 295° West 424 488 38,000  Level FlightAware ADS-B
Thu 06:38:22 PM 37.4860 -99.5980 296° West 424 488 38,000  Level FlightAware ADS-B
Thu 06:39:02 PM 37.5140 -99.6750 295° West 424 488 38,000  Level FlightAware ADS-B
Thu 06:39:42 PM 37.5420 -99.7510 295° West 424 488 38,000  Level FlightAware ADS-B
Thu 06:40:22 PM 37.5700 -99.8270 295° West 424 488 38,000  Level FlightAware ADS-B
Thu 06:41:02 PM 37.5980 -99.9030 295° West 424 488 38,000  Level FlightAware ADS-B
Thu 06:41:52 PM 37.6330 -99.9990 295° West 424 488 38,000  Level FlightAware ADS-B
Thu 06:42:32 PM 37.6620 -100.0750 296° West 424 488 38,000  Level FlightAware ADS-B
Thu 06:43:12 PM 37.6900 -100.1510 295° West 424 488 38,000  Level FlightAware ADS-B
Thu 06:43:52 PM 37.7180 -100.2280 295° West 424 488 38,000  Level FlightAware ADS-B
Thu 06:44:18 PM 37.8142 -100.4428 295° West 420 483 38,000  Level Kansas City Center
Thu 06:45:20 PM 37.8700 -100.5914 295° West 422 486 38,000  Level Kansas City Center
Thu 06:46:22 PM 37.9172 -100.7172 295° West 419 482 38,000  Level Kansas City Center
Thu 06:47:24 PM 37.9725 -100.8631 296° West 416 479 38,000  Level Kansas City Center
Thu 06:48:26 PM 38.0203 -100.9875 296° West 414 476 38,000 -349 Level Kansas City Center
Thu 06:53:59 PM 38.3307 -101.7190 296° West 417 480 35,700 -462 Descending FlightAware ADS-B
Thu 06:54:30 PM 38.3627 -101.7830 303° West 418 481 35,200 -1,065 Descending FlightAware ADS-B
Thu 06:55:01 PM 38.3940 -101.8460 302° West 409 471 34,600 -1,082 Descending FlightAware ADS-B
Thu 06:55:31 PM 38.4239 -101.9060 302° West 403 464 34,100 -1,000 Descending FlightAware ADS-B
Thu 06:56:01 PM 38.4536 -101.9660 302° West 395 455 33,600 -1,082 Descending FlightAware ADS-B
Thu 06:56:32 PM 38.4830 -102.0260 302° West 393 452 33,000 -1,082 Descending FlightAware ADS-B
Thu 06:57:02 PM 38.5123 -102.0850 302° West 390 449 32,500 -933 Descending FlightAware ADS-B
Thu 06:57:17 PM 38.5267 -102.1150 302° West 389 448 32,300 -857 Descending FlightAware ADS-B
Thu 06:57:23 PM 38.5307 -102.1260 295° West 388 447 32,200 -1,200 Descending FlightAware ADS-B
Thu 06:57:27 PM 38.5330 -102.1350 288° West 387 445 32,100 -750 Descending FlightAware ADS-B
Thu 06:57:31 PM 38.5347 -102.1460 281° West 387 445 32,100 -667 Level FlightAware ADS-B
Thu 06:57:36 PM 38.5356 -102.1560 277° West 387 445 32,000 -1,091 Descending FlightAware ADS-B
Thu 06:57:42 PM 38.5356 -102.1680 270° West 388 447 31,900 -1,000 Descending FlightAware ADS-B
Thu 06:58:12 PM 38.5325 -102.2370 267° West 385 443 31,400 -885 Descending FlightAware ADS-B
Thu 06:58:43 PM 38.5294 -102.3060 267° West 380 437 31,000 -393 Descending FlightAware ADS-B
Thu 06:59:13 PM 38.5266 -102.3740 267° West 381 438 31,000  Level FlightAware ADS-B
Thu 06:59:44 PM 38.5236 -102.4430 267° West 381 438 31,000  Level FlightAware ADS-B
Thu 06:59:56 PM 38.5225 -102.4710 267° West 380 437 31,000  Level FlightAware ADS-B
Thu 07:00:01 PM 38.5227 -102.4810 271° West 380 437 31,000  Level FlightAware ADS-B
Thu 07:00:09 PM 38.5257 -102.5000 281° West 380 437 31,000  Level FlightAware ADS-B
Thu 07:00:12 PM 38.5277 -102.5070 290° West 381 438 31,000  Level FlightAware ADS-B
Thu 07:00:16 PM 38.5302 -102.5130 298° West 381 438 31,000  Level FlightAware ADS-B
Thu 07:00:20 PM 38.5343 -102.5220 300° West 382 440 31,000  Level FlightAware ADS-B
Thu 07:00:25 PM 38.5390 -102.5300 307° West 384 442 31,000 -545 Level FlightAware ADS-B
Thu 07:00:31 PM 38.5464 -102.5400 313° West 386 444 30,900 -1,636 Descending FlightAware ADS-B
Thu 07:00:36 PM 38.5539 -102.5480 320° Northwest 388 447 30,700 -1,000 Descending FlightAware ADS-B
Thu 07:01:07 PM 38.5963 -102.5950 319° Northwest 401 461 30,300 -689 Descending FlightAware ADS-B
Thu 07:01:37 PM 38.6386 -102.6440 318° Northwest 415 478 30,000 -300 Descending FlightAware ADS-B
Thu 07:02:07 PM 38.6815 -102.6940 318° Northwest 423 487 30,000  Level FlightAware ADS-B
Thu 07:02:38 PM 38.7257 -102.7460 317° Northwest 425 489 30,000  Level FlightAware ADS-B
Thu 07:03:08 PM 38.7694 -102.7970 318° Northwest 424 488 30,000 -295 Level FlightAware ADS-B
Thu 07:03:39 PM 38.8133 -102.8490 317° Northwest 421 484 29,700 -774 Descending FlightAware ADS-B
Thu 07:04:10 PM 38.8569 -102.9000 318° Northwest 418 481 29,200 -984 Descending FlightAware ADS-B
Thu 07:04:40 PM 38.8993 -102.9510 317° Northwest 415 478 28,700 -1,000 Descending FlightAware ADS-B
Thu 07:05:10 PM 38.9417 -103.0010 317° Northwest 410 472 28,200 -933 Descending FlightAware ADS-B
Thu 07:05:25 PM 38.9618 -103.0270 315° West 409 471 28,000 -375 Descending FlightAware ADS-B
Thu 07:05:42 PM 38.9823 -103.0590 309° West 408 470 28,000  Level FlightAware ADS-B
Thu 07:05:52 PM 38.9931 -103.0790 305° West 407 468 28,000 -585 Level FlightAware ADS-B
Thu 07:06:23 PM 39.0234 -103.1420 302° West 406 467 27,600 -885 Descending FlightAware ADS-B
Thu 07:06:53 PM 39.0530 -103.2040 302° West 402 463 27,100 -984 Descending FlightAware ADS-B
Thu 07:07:24 PM 39.0830 -103.2670 302° West 402 463 26,600 -984 Descending FlightAware ADS-B
Thu 07:07:54 PM 39.1121 -103.3290 301° West 399 459 26,100 -1,082 Descending FlightAware ADS-B
Thu 07:08:25 PM 39.1410 -103.3900 301° West 395 455 25,500 -1,377 Descending FlightAware ADS-B
Thu 07:08:55 PM 39.1692 -103.4500 301° West 387 445 24,700 -1,800 Descending FlightAware ADS-B
Thu 07:09:25 PM 39.1971 -103.5090 301° West 379 436 23,700 -2,000 Descending FlightAware ADS-B
Thu 07:09:55 PM 39.2241 -103.5660 301° West 373 429 22,700 -1,967 Descending FlightAware ADS-B
Thu 07:10:26 PM 39.2510 -103.6230 301° West 366 421 21,700 -1,967 Descending FlightAware ADS-B
Thu 07:10:56 PM 39.2771 -103.6790 301° West 359 413 20,700 -1,900 Descending FlightAware ADS-B
Thu 07:11:26 PM 39.3028 -103.7350 301° West 354 407 19,800 -1,900 Descending FlightAware ADS-B
Thu 07:11:56 PM 39.3279 -103.7890 301° West 350 403 18,800 -1,967 Descending FlightAware ADS-B
Thu 07:12:27 PM 39.3531 -103.8440 301° West 344 396 17,800 -1,377 Descending FlightAware ADS-B
Thu 07:12:57 PM 39.3770 -103.8960 301° West 325 374 17,400 -783 Descending FlightAware ADS-B
Thu 07:13:13 PM 39.3883 -103.9210 300° West 311 358 17,200 -600 Descending FlightAware ADS-B
Thu 07:13:17 PM 39.3908 -103.9280 295° West 309 356 17,200 -429 Level FlightAware ADS-B
Thu 07:13:27 PM 39.3955 -103.9460 289° West 301 346 17,100 -800 Descending FlightAware ADS-B
Thu 07:13:32 PM 39.3969 -103.9540 283° West 298 343 17,000 -1,714 Descending FlightAware ADS-B
Thu 07:13:41 PM 39.3984 -103.9710 277° West 297 342 16,700 -1,500 Descending FlightAware ADS-B
Thu 07:14:12 PM 39.4007 -104.0230 273° West 293 337 16,000 -1,355 Descending FlightAware ADS-B
Thu 07:14:43 PM 39.4031 -104.0770 273° West 288 331 15,300 -1,385 Descending FlightAware ADS-B
Thu 07:15:04 PM 39.4047 -104.1130 273° West 289 333 14,800 -1,355 Descending FlightAware ADS-B
Thu 07:15:14 PM 39.4055 -104.1300 273° West 290 334 14,600 -1,500 Descending FlightAware ADS-B
Thu 07:15:44 PM 39.4077 -104.1830 273° West 291 335 13,800 -1,500 Descending FlightAware ADS-B
Thu 07:15:58 PM 39.4087 -104.2080 273° West 291 335 13,500 -774 Descending FlightAware ADS-B
Thu 07:16:15 PM 39.4100 -104.2370 273° West 297 342 13,400 -286 Descending FlightAware ADS-B
Thu 07:16:19 PM 39.4108 -104.2440 278° West 300 345 13,400 -750 Level FlightAware ADS-B
Thu 07:16:23 PM 39.4123 -104.2510 286° West 300 345 13,300 -750 Descending FlightAware ADS-B
Thu 07:16:27 PM 39.4145 -104.2580 292° West 304 350 13,300 -273 Level FlightAware ADS-B
Thu 07:16:45 PM 39.4270 -104.2860 300° West 312 359 13,200 -500 Descending FlightAware ADS-B
Thu 07:17:15 PM 39.4493 -104.3330 302° West 296 341 12,900 -900 Descending FlightAware ADS-B
Thu 07:17:45 PM 39.4705 -104.3780 301° West 287 330 12,300 -1,309 Descending FlightAware ADS-B
Thu 07:18:10 PM 39.4874 -104.4140 301° West 284 327 11,700 -1,358 Descending FlightAware ADS-B
Thu 07:18:38 PM 39.5071 -104.4550 302° West 289 333 11,100 -1,174 Descending FlightAware ADS-B
Thu 07:18:56 PM 39.5200 -104.4820 302° West 290 334 10,800 -960 Descending FlightAware ADS-B
Thu 07:19:03 PM 39.5252 -104.4910 307° West 288 331 10,700 -1,000 Descending FlightAware ADS-B
Thu 07:19:08 PM 39.5298 -104.4980 310° West 287 330 10,600 -1,500 Descending FlightAware ADS-B
Thu 07:19:11 PM 39.5329 -104.5010 323° Northwest 286 329 10,500 -857 Descending FlightAware ADS-B
Thu 07:19:15 PM 39.5369 -104.5040 330° Northwest 286 329 10,500 -1,250 Level FlightAware ADS-B
Thu 07:19:35 PM 39.5613 -104.5190 335° Northwest 282 325 10,000 -1,636 Descending FlightAware ADS-B
Thu 07:19:48 PM 39.5762 -104.5270 338° Northwest 284 327 9,600 -1,655 Descending FlightAware ADS-B
Thu 07:20:04 PM 39.5963 -104.5380 337° Northwest 285 328 9,200 -1,313 Descending FlightAware ADS-B
Thu 07:20:20 PM 39.6154 -104.5490 336° Northwest 287 330 8,900 -1,440 Descending FlightAware ADS-B
Thu 07:20:29 PM 39.6269 -104.5560 335° Northwest 289 333 8,600 -1,200 Descending FlightAware ADS-B
Thu 07:20:45 PM 39.6453 -104.5670 335° Northwest 282 325 8,400 -600 Descending FlightAware ADS-B
Thu 07:20:59 PM 39.6616 -104.5760 337° Northwest 272 313 8,300 -811 Descending FlightAware ADS-B
Thu 07:21:22 PM 39.6883 -104.5910 337° Northwest 263 303 7,900 -923 Descending FlightAware ADS-B
Thu 07:21:38 PM 39.7056 -104.6020 334° Northwest 258 297 7,700 -1,091 Descending FlightAware ADS-B
Thu 07:21:55 PM 39.7238 -104.6130 335° Northwest 255 293 7,300 -1,059 Descending FlightAware ADS-B
Thu 07:22:12 PM 39.7405 -104.6230 335° Northwest 228 262 7,100 -686 Descending FlightAware ADS-B
Thu 07:22:30 PM 39.7567 -104.6320 337° Northwest 208 239 6,900 -923 Descending FlightAware ADS-B
Thu 07:22:38 PM 39.7643 -104.6360 338° Northwest 201 231 6,700 -1,043 Descending FlightAware ADS-B
Thu 07:22:53 PM 39.7766 -104.6400 346° North 185 213 6,500 -750 Descending FlightAware ADS-B
Thu 07:23:02 PM 39.7847 -104.6420 349° North 177 204 6,400 -923 Descending FlightAware ADS-B
Thu 07:23:06 PM 39.7878 -104.6420 360° North 173 199 6,300 -857 Descending FlightAware ADS-B
Thu 07:23:09 PM 39.7903 -104.6420 360° North 170 196 6,300 -1,000 Level FlightAware ADS-B
Thu 07:23:18 PM 39.7968 -104.6420 360° North 166 191 6,100 -1,091 Descending FlightAware ADS-B
Thu 07:23:31 PM 39.8067 -104.6420 360° North 165 190 5,900 -818 Descending FlightAware ADS-B
Thu 07:23:40 PM 39.8138 -104.6420 360° North 168 193 5,800 -706 Descending FlightAware ADS-B
Thu 07:23:48 PM 39.8202 -104.6420 360° North 168 193 5,700 -255 Descending FlightAware ADS-B
Thu 07:24:27 PM 39.8460 -104.6410 North 166 191 5,600 -154 Descending FlightAware ADS-B

Login

Don't have an account? Register now (free) for customized features, flight alerts, and more!